createdAt,value
2019-04-07T00:01:19.393Z,38.00
2019-04-07T00:01:58.355Z,37.00
2019-04-07T00:02:58.357Z,37.30
2019-04-07T00:03:58.600Z,36.10
2019-04-07T00:05:09.335Z,35.80
2019-04-07T00:05:58.600Z,36.80
2019-04-07T00:07:19.599Z,36.20
2019-04-07T00:07:59.069Z,37.80
2019-04-07T00:08:58.430Z,37.80
2019-04-07T00:09:58.548Z,38.30
2019-04-07T00:10:58.933Z,38.30
2019-04-07T00:11:59.075Z,38.30
2019-04-07T00:13:19.528Z,38.00
2019-04-07T00:13:58.924Z,42.70
2019-04-07T00:14:58.512Z,43.00
2019-04-07T00:15:58.974Z,42.30
2019-04-07T00:16:58.566Z,42.60
2019-04-07T00:17:59.209Z,41.10
2019-04-07T00:19:19.584Z,40.90
2019-04-07T00:19:58.666Z,40.10
2019-04-07T00:20:58.630Z,41.90
2019-04-07T00:21:59.271Z,40.50
2019-04-07T00:22:58.614Z,41.70
2019-04-07T00:23:58.646Z,40.70
2019-04-07T00:25:19.696Z,40.90
2019-04-07T00:25:58.917Z,40.50
2019-04-07T00:26:58.688Z,39.90
2019-04-07T00:27:58.726Z,41.70
2019-04-07T00:28:58.756Z,41.10
2019-04-07T00:29:59.911Z,41.30
2019-04-07T00:31:20.468Z,39.70
2019-04-07T00:31:58.786Z,41.20
2019-04-07T00:32:58.784Z,40.50
2019-04-07T00:33:59.301Z,40.90
2019-04-07T00:34:58.812Z,40.50
2019-04-07T00:35:59.263Z,40.60
2019-04-07T00:37:19.850Z,39.40
2019-04-07T00:37:59.447Z,39.90
2019-04-07T00:38:59.393Z,39.80
2019-04-07T00:39:58.978Z,40.30
2019-04-07T00:40:59.239Z,40.30
2019-04-07T00:41:59.212Z,40.80
2019-04-07T00:43:19.990Z,40.50
2019-04-07T00:43:59.446Z,41.50
2019-04-07T00:44:59.657Z,41.90
2019-04-07T00:45:58.965Z,40.80
2019-04-07T00:46:59.018Z,40.70
2019-04-07T00:47:59.362Z,40.10
2019-04-07T00:49:20.543Z,40.00
2019-04-07T00:49:59.023Z,40.10
2019-04-07T00:50:59.252Z,40.50
2019-04-07T00:51:59.595Z,40.30
2019-04-07T00:52:59.103Z,39.40
2019-04-07T00:53:59.621Z,39.90
2019-04-07T00:55:20.112Z,39.80
2019-04-07T00:55:59.433Z,38.20
2019-04-07T00:56:59.417Z,39.70
2019-04-07T00:57:59.462Z,38.10
2019-04-07T00:58:59.142Z,39.80
2019-04-07T00:59:59.460Z,40.60
2019-04-07T01:01:20.681Z,40.00
2019-04-07T01:01:59.230Z,39.30
2019-04-07T01:02:59.434Z,39.60
2019-04-07T01:03:59.783Z,38.80
2019-04-07T01:04:59.265Z,39.60
2019-04-07T01:05:59.236Z,39.70
2019-04-07T01:07:20.313Z,40.00
2019-04-07T01:07:59.280Z,39.40
2019-04-07T01:08:59.318Z,40.00
2019-04-07T01:09:59.587Z,39.20
2019-04-07T01:10:59.327Z,38.40
2019-04-07T01:11:59.551Z,38.20
2019-04-07T01:13:20.823Z,38.60
2019-04-07T01:13:59.356Z,38.80
2019-04-07T01:14:59.624Z,38.00
2019-04-07T01:15:59.394Z,37.80
2019-04-07T01:16:59.450Z,36.90
2019-04-07T01:17:59.928Z,37.40
2019-04-07T01:19:21.088Z,36.20
2019-04-07T01:19:59.769Z,36.40
2019-04-07T01:20:59.523Z,36.90
2019-04-07T01:21:59.898Z,36.10
2019-04-07T01:22:59.498Z,36.00
2019-04-07T01:23:59.536Z,36.20
2019-04-07T01:25:20.546Z,36.10
2019-04-07T01:25:59.532Z,34.90
2019-04-07T01:27:00.183Z,36.00
2019-04-07T01:27:59.581Z,36.40
2019-04-07T01:29:00.195Z,35.90
2019-04-07T01:29:59.605Z,36.30
2019-04-07T01:31:20.943Z,35.50
2019-04-07T01:31:59.621Z,36.90
2019-04-07T01:33:00.030Z,35.80
2019-04-07T01:33:59.636Z,35.70
2019-04-07T01:34:59.751Z,35.90
2019-04-07T01:35:59.846Z,34.90
2019-04-07T01:37:20.963Z,35.00
2019-04-07T01:37:59.944Z,35.80
2019-04-07T01:38:59.977Z,34.30
2019-04-07T01:40:00.130Z,35.00
2019-04-07T01:40:59.913Z,34.10
2019-04-07T01:41:59.774Z,33.60
2019-04-07T01:43:20.798Z,32.50
2019-04-07T01:44:00.156Z,33.70
2019-04-07T01:44:59.976Z,34.60
2019-04-07T01:45:59.914Z,34.40
2019-04-07T01:46:59.833Z,33.50
2019-04-07T01:47:59.832Z,34.30
2019-04-07T01:49:21.033Z,33.20
2019-04-07T01:50:00.462Z,36.20
2019-04-07T01:50:59.881Z,34.40
2019-04-07T01:51:59.926Z,34.50
2019-04-07T01:52:59.904Z,34.40
2019-04-07T01:53:59.950Z,33.00
2019-04-07T01:55:20.948Z,33.50
2019-04-07T01:56:00.266Z,33.30
2019-04-07T01:57:00.235Z,34.80
2019-04-07T01:57:59.979Z,33.80
2019-04-07T01:59:00.004Z,33.50
2019-04-07T02:00:00.705Z,33.90
2019-04-07T02:01:21.035Z,33.60
2019-04-07T02:02:00.471Z,33.70
2019-04-07T02:03:00.044Z,33.40
2019-04-07T02:04:00.074Z,33.80
2019-04-07T02:05:00.152Z,33.70
2019-04-07T02:06:02.790Z,33.40
2019-04-07T02:07:22.146Z,33.00
2019-04-07T02:08:00.141Z,32.30
2019-04-07T02:09:00.796Z,33.50
2019-04-07T02:10:00.138Z,32.90
2019-04-07T02:11:00.150Z,32.10
2019-04-07T02:12:00.592Z,32.70
2019-04-07T02:13:21.461Z,33.30
2019-04-07T02:14:00.469Z,33.50
2019-04-07T02:15:00.951Z,33.70
2019-04-07T02:16:00.276Z,33.30
2019-04-07T02:17:00.928Z,32.90
2019-04-07T02:18:00.871Z,33.50
2019-04-07T02:19:21.624Z,33.80
2019-04-07T02:20:00.333Z,33.60
2019-04-07T02:21:00.301Z,32.80
2019-04-07T02:22:00.390Z,34.20
2019-04-07T02:23:00.826Z,33.80
2019-04-07T02:24:00.320Z,34.70
2019-04-07T02:25:21.906Z,34.20
2019-04-07T02:26:00.879Z,33.60
2019-04-07T02:27:00.885Z,33.80
2019-04-07T02:28:01.066Z,33.50
2019-04-07T02:29:00.409Z,33.20
2019-04-07T02:30:00.509Z,33.90
2019-04-07T02:31:22.459Z,33.10
2019-04-07T02:32:01.180Z,32.10
2019-04-07T02:33:00.520Z,32.80
2019-04-07T02:34:00.490Z,32.80
2019-04-07T02:35:01.383Z,31.80
2019-04-07T02:36:13.588Z,32.90
2019-04-07T02:37:22.549Z,33.00
2019-04-07T02:38:00.645Z,31.70
2019-04-07T02:39:00.546Z,33.00
2019-04-07T02:40:00.703Z,33.10
2019-04-07T02:41:00.565Z,33.20
2019-04-07T02:42:00.625Z,33.20
2019-04-07T02:43:21.609Z,33.60
2019-04-07T02:44:01.499Z,32.20
2019-04-07T02:45:01.394Z,32.80
2019-04-07T02:46:00.719Z,33.20
2019-04-07T02:47:00.873Z,31.80
2019-04-07T02:48:01.197Z,33.20
2019-04-07T02:49:21.721Z,32.20
2019-04-07T02:50:01.610Z,32.20
2019-04-07T02:51:01.269Z,32.50
2019-04-07T02:52:00.744Z,31.90
2019-04-07T02:53:01.521Z,32.60
2019-04-07T02:54:00.834Z,31.50
2019-04-07T02:55:21.940Z,32.70
2019-04-07T02:56:01.869Z,32.50
2019-04-07T02:57:00.806Z,33.30
2019-04-07T02:58:01.547Z,32.30
2019-04-07T02:59:01.332Z,32.20
2019-04-07T03:00:01.135Z,32.70
2019-04-07T03:01:22.084Z,32.70
2019-04-07T03:02:00.860Z,32.90
2019-04-07T03:03:01.635Z,31.80
2019-04-07T03:04:01.801Z,33.20
2019-04-07T03:05:02.033Z,31.90
2019-04-07T03:06:01.823Z,33.10
2019-04-07T03:07:21.940Z,32.50
2019-04-07T03:08:01.591Z,32.60
2019-04-07T03:09:00.952Z,31.80
2019-04-07T03:10:00.979Z,32.30
2019-04-07T03:11:01.911Z,32.80
2019-04-07T03:12:01.694Z,32.40
2019-04-07T03:13:22.768Z,31.60
2019-04-07T03:14:01.040Z,31.10
2019-04-07T03:15:01.083Z,30.80
2019-04-07T03:16:01.955Z,31.80
2019-04-07T03:17:02.198Z,32.40
2019-04-07T03:18:01.102Z,32.40
2019-04-07T03:19:22.193Z,31.90
2019-04-07T03:20:01.101Z,32.10
2019-04-07T03:21:01.234Z,32.30
2019-04-07T03:22:01.190Z,31.10
2019-04-07T03:23:01.928Z,31.80
2019-04-07T03:24:01.183Z,31.70
2019-04-07T03:25:22.185Z,30.90
2019-04-07T03:26:02.211Z,31.00
2019-04-07T03:27:01.235Z,31.00
2019-04-07T03:28:01.232Z,31.00
2019-04-07T03:29:01.410Z,31.30
2019-04-07T03:30:01.529Z,32.20
2019-04-07T03:31:23.906Z,31.10
2019-04-07T03:32:02.757Z,32.00
2019-04-07T03:33:05.200Z,31.80
2019-04-07T03:34:03.784Z,31.50
2019-04-07T03:35:03.160Z,32.30
2019-04-07T03:36:03.331Z,31.50
2019-04-07T03:37:34.457Z,32.30
2019-04-07T03:38:02.028Z,31.50
2019-04-07T03:39:01.974Z,30.80
2019-04-07T03:40:02.579Z,31.40
2019-04-07T03:41:01.448Z,31.40
2019-04-07T03:42:01.431Z,31.00
2019-04-07T03:43:22.445Z,31.40
2019-04-07T03:44:01.464Z,31.30
2019-04-07T03:45:01.455Z,31.30
2019-04-07T03:46:01.487Z,30.80
2019-04-07T03:47:01.573Z,31.70
2019-04-07T03:48:02.206Z,30.70
2019-04-07T03:49:23.372Z,30.50
2019-04-07T03:50:01.681Z,31.00
2019-04-07T03:51:01.593Z,30.70
2019-04-07T03:52:01.952Z,31.40
2019-04-07T03:53:01.737Z,30.80
2019-04-07T03:54:02.797Z,30.80
2019-04-07T03:55:22.795Z,30.20
2019-04-07T03:56:01.874Z,30.70
2019-04-07T03:57:01.611Z,31.40
2019-04-07T03:58:01.749Z,30.70
2019-04-07T03:59:01.644Z,30.50
2019-04-07T04:00:02.234Z,30.10
2019-04-07T04:01:22.691Z,30.30
2019-04-07T04:02:01.735Z,30.90
2019-04-07T04:03:02.660Z,31.10
2019-04-07T04:04:02.212Z,30.50
2019-04-07T04:05:02.905Z,30.60
2019-04-07T04:06:02.603Z,31.20
2019-04-07T04:07:31.555Z,31.30
2019-04-07T04:08:02.161Z,31.20
2019-04-07T04:09:02.062Z,30.30
2019-04-07T04:10:01.872Z,31.10
2019-04-07T04:11:02.675Z,31.20
2019-04-07T04:12:01.829Z,30.40
2019-04-07T04:13:23.112Z,31.10
2019-04-07T04:14:02.842Z,31.40
2019-04-07T04:15:01.989Z,31.90
2019-04-07T04:16:02.914Z,31.70
2019-04-07T04:17:02.075Z,32.50
2019-04-07T04:18:01.919Z,31.90
2019-04-07T04:19:22.960Z,32.40
2019-04-07T04:20:02.301Z,31.40
2019-04-07T04:21:01.960Z,32.90
2019-04-07T04:22:02.153Z,32.40
2019-04-07T04:23:01.987Z,31.10
2019-04-07T04:24:01.995Z,31.60
2019-04-07T04:25:23.222Z,31.70
2019-04-07T04:26:02.508Z,31.80
2019-04-07T04:27:02.041Z,33.40
2019-04-07T04:28:02.049Z,33.10
2019-04-07T04:29:02.611Z,32.30
2019-04-07T04:30:02.962Z,31.30
2019-04-07T04:31:23.115Z,32.60
2019-04-07T04:32:02.109Z,31.10
2019-04-07T04:33:02.269Z,32.70
2019-04-07T04:34:02.166Z,32.70
2019-04-07T04:35:03.194Z,33.70
2019-04-07T04:36:02.756Z,32.60
2019-04-07T04:37:36.125Z,34.60
2019-04-07T04:38:02.203Z,33.40
2019-04-07T04:39:02.209Z,33.30
2019-04-07T04:40:02.222Z,33.30
2019-04-07T04:41:02.834Z,32.60
2019-04-07T04:42:02.255Z,33.30
2019-04-07T04:43:23.464Z,33.50
2019-04-07T04:44:02.287Z,33.40
2019-04-07T04:45:02.574Z,33.00
2019-04-07T04:46:03.138Z,33.10
2019-04-07T04:47:02.819Z,31.80
2019-04-07T04:48:02.733Z,32.40
2019-04-07T04:49:23.426Z,32.60
2019-04-07T04:50:02.527Z,33.50
2019-04-07T04:51:03.121Z,31.60
2019-04-07T04:52:03.063Z,32.40
2019-04-07T04:53:02.412Z,33.60
2019-04-07T04:54:02.418Z,33.20
2019-04-07T04:55:24.263Z,33.00
2019-04-07T04:56:02.995Z,33.90
2019-04-07T04:57:05.435Z,34.80
2019-04-07T04:58:02.500Z,33.90
2019-04-07T04:59:02.481Z,32.90
2019-04-07T05:00:02.521Z,33.10
2019-04-07T05:01:23.518Z,33.50
2019-04-07T05:02:02.707Z,32.70
2019-04-07T05:03:02.739Z,32.70
2019-04-07T05:04:02.586Z,34.00
2019-04-07T05:05:02.685Z,32.60
2019-04-07T05:06:03.585Z,32.60
2019-04-07T05:07:24.437Z,31.70
2019-04-07T05:08:04.512Z,31.80
2019-04-07T05:09:03.391Z,32.40
2019-04-07T05:10:02.756Z,31.80
2019-04-07T05:11:03.118Z,31.80
2019-04-07T05:12:04.805Z,32.90
2019-04-07T05:13:23.682Z,32.80
2019-04-07T05:14:02.712Z,32.80
2019-04-07T05:15:02.695Z,33.10
2019-04-07T05:16:02.761Z,32.60
2019-04-07T05:17:02.730Z,32.70
2019-04-07T05:18:02.792Z,32.90
2019-04-07T05:19:23.783Z,32.00
2019-04-07T05:20:02.923Z,33.50
2019-04-07T05:21:03.125Z,32.20
2019-04-07T05:22:02.789Z,32.70
2019-04-07T05:23:03.052Z,32.20
2019-04-07T05:24:04.224Z,32.10
2019-04-07T05:25:24.933Z,31.80
2019-04-07T05:26:03.590Z,32.80
2019-04-07T05:27:03.222Z,32.60
2019-04-07T05:28:03.753Z,31.80
2019-04-07T05:29:03.336Z,32.10
2019-04-07T05:30:03.464Z,31.50
2019-04-07T05:31:24.651Z,31.20
2019-04-07T05:32:03.250Z,32.20
2019-04-07T05:33:03.499Z,31.70
2019-04-07T05:34:03.128Z,32.00
2019-04-07T05:35:03.192Z,32.70
2019-04-07T05:36:03.737Z,31.60
2019-04-07T05:37:24.267Z,31.90
2019-04-07T05:38:05.665Z,31.40
2019-04-07T05:39:03.271Z,33.10
2019-04-07T05:40:03.968Z,33.30
2019-04-07T05:41:03.310Z,34.10
2019-04-07T05:42:03.532Z,34.50
2019-04-07T05:43:24.247Z,34.30
2019-04-07T05:44:03.513Z,34.30
2019-04-07T05:45:03.152Z,33.20
2019-04-07T05:46:05.873Z,33.30
2019-04-07T05:47:03.285Z,33.30
2019-04-07T05:48:03.253Z,32.60
2019-04-07T05:49:24.412Z,31.70
2019-04-07T05:50:05.091Z,32.50
2019-04-07T05:51:03.453Z,32.70
2019-04-07T05:52:05.668Z,31.90
2019-04-07T05:53:03.248Z,32.10
2019-04-07T05:54:03.598Z,31.90
2019-04-07T05:55:24.525Z,31.20
2019-04-07T05:56:03.283Z,30.80
2019-04-07T05:57:03.343Z,31.30
2019-04-07T05:58:05.577Z,31.60
2019-04-07T05:59:03.312Z,31.30
2019-04-07T06:00:04.233Z,31.20
2019-04-07T06:01:24.607Z,30.90
2019-04-07T06:02:03.889Z,31.10
2019-04-07T06:03:06.624Z,31.10
2019-04-07T06:04:03.378Z,31.10
2019-04-07T06:05:04.104Z,32.50
2019-04-07T06:06:04.020Z,30.70
2019-04-07T06:07:28.749Z,31.20
2019-04-07T06:08:21.289Z,30.90
2019-04-07T06:09:04.004Z,31.70
2019-04-07T06:10:03.522Z,32.60
2019-04-07T06:11:04.133Z,31.80
2019-04-07T06:12:07.977Z,30.00
2019-04-07T06:13:24.760Z,30.90
2019-04-07T06:14:04.021Z,31.20
2019-04-07T06:15:04.166Z,30.90
2019-04-07T06:16:04.177Z,31.00
2019-04-07T06:17:04.840Z,31.40
2019-04-07T06:18:04.093Z,31.50
2019-04-07T06:19:24.973Z,30.70
2019-04-07T06:20:03.717Z,31.50
2019-04-07T06:21:03.916Z,31.70
2019-04-07T06:22:03.602Z,31.70
2019-04-07T06:23:03.900Z,31.50
2019-04-07T06:24:03.630Z,31.90
2019-04-07T06:25:25.107Z,30.60
2019-04-07T06:26:06.497Z,31.50
2019-04-07T06:27:04.343Z,32.30
2019-04-07T06:28:04.238Z,32.10
2019-04-07T06:29:03.713Z,31.30
2019-04-07T06:30:04.065Z,32.00
2019-04-07T06:31:26.321Z,33.00
2019-04-07T06:32:05.237Z,32.50
2019-04-07T06:33:05.502Z,32.10
2019-04-07T06:34:04.226Z,32.30
2019-04-07T06:35:03.926Z,32.30
2019-04-07T06:36:03.856Z,32.70
2019-04-07T06:37:28.823Z,32.50
2019-04-07T06:38:06.690Z,33.70
2019-04-07T06:39:03.841Z,32.60
2019-04-07T06:40:04.670Z,33.10
2019-04-07T06:41:03.879Z,33.40
2019-04-07T06:42:03.902Z,33.50
2019-04-07T06:43:24.913Z,32.90
2019-04-07T06:44:12.721Z,33.60
2019-04-07T06:45:04.087Z,33.10
2019-04-07T06:46:03.947Z,33.90
2019-04-07T06:47:04.601Z,34.30
2019-04-07T06:48:07.472Z,34.10
2019-04-07T06:49:28.336Z,33.40
2019-04-07T06:50:05.637Z,34.20
2019-04-07T06:51:04.027Z,33.60
2019-04-07T06:52:04.810Z,33.50
2019-04-07T06:53:04.425Z,33.50
2019-04-07T06:54:04.730Z,33.90
2019-04-07T06:55:27.608Z,33.60
2019-04-07T06:56:05.007Z,33.50
2019-04-07T06:57:05.976Z,33.30
2019-04-07T06:58:06.117Z,33.60
2019-04-07T06:59:04.586Z,33.30
2019-04-07T07:00:04.140Z,33.80
2019-04-07T07:01:26.476Z,33.60
2019-04-07T07:02:04.280Z,34.10
2019-04-07T07:03:04.409Z,33.80
2019-04-07T07:04:08.628Z,33.30
2019-04-07T07:05:04.230Z,33.10
2019-04-07T07:06:04.758Z,33.30
2019-04-07T07:07:25.251Z,33.10
2019-04-07T07:08:04.256Z,33.90
2019-04-07T07:09:04.410Z,32.70
2019-04-07T07:10:06.218Z,33.00
2019-04-07T07:11:07.686Z,33.50
2019-04-07T07:12:05.035Z,34.20
2019-04-07T07:13:29.218Z,33.10
2019-04-07T07:14:04.334Z,33.70
2019-04-07T07:15:04.569Z,33.10
2019-04-07T07:16:07.925Z,33.90
2019-04-07T07:17:04.376Z,33.50
2019-04-07T07:18:04.617Z,32.60
2019-04-07T07:19:27.433Z,32.40
2019-04-07T07:20:05.687Z,31.80
2019-04-07T07:21:05.015Z,31.50
2019-04-07T07:22:07.731Z,32.80
2019-04-07T07:23:04.718Z,32.40
2019-04-07T07:24:04.940Z,32.50
2019-04-07T07:25:26.602Z,31.50
2019-04-07T07:26:04.512Z,32.60
2019-04-07T07:27:07.200Z,32.50
2019-04-07T07:28:04.574Z,31.80
2019-04-07T07:29:06.463Z,31.40
2019-04-07T07:30:04.583Z,32.50
2019-04-07T07:31:26.570Z,31.80
2019-04-07T07:32:04.946Z,31.90
2019-04-07T07:33:07.311Z,32.40
2019-04-07T07:34:05.044Z,32.30
2019-04-07T07:35:05.098Z,32.50
2019-04-07T07:36:04.687Z,32.00
2019-04-07T07:37:26.816Z,31.30
2019-04-07T07:38:04.923Z,31.70
2019-04-07T07:39:08.572Z,31.90
2019-04-07T07:40:06.871Z,31.80
2019-04-07T07:41:04.842Z,31.90
2019-04-07T07:42:04.726Z,32.00
2019-04-07T07:43:27.981Z,30.80
2019-04-07T07:44:07.596Z,31.90
2019-04-07T07:45:08.126Z,30.90
2019-04-07T07:46:05.518Z,31.40
2019-04-07T07:47:04.800Z,30.50
2019-04-07T07:48:05.365Z,30.40
2019-04-07T07:49:25.901Z,30.50
2019-04-07T07:50:05.400Z,30.30
2019-04-07T07:51:07.173Z,30.60
2019-04-07T07:52:04.967Z,30.00
2019-04-07T07:53:04.891Z,30.40
2019-04-07T07:54:05.531Z,30.30
2019-04-07T07:55:26.456Z,31.20
2019-04-07T07:56:08.493Z,30.10
2019-04-07T07:57:05.005Z,30.00
2019-04-07T07:58:04.967Z,30.40
2019-04-07T07:59:06.106Z,29.10
2019-04-07T08:00:06.938Z,28.90
2019-04-07T08:01:26.063Z,31.10
2019-04-07T08:02:05.050Z,29.50
2019-04-07T08:03:05.687Z,28.80
2019-04-07T08:04:06.185Z,29.30
2019-04-07T08:05:05.318Z,29.10
2019-04-07T08:06:08.024Z,29.30
2019-04-07T08:07:26.827Z,29.60
2019-04-07T08:08:05.778Z,28.10
2019-04-07T08:09:11.961Z,28.00
2019-04-07T08:10:05.146Z,28.40
2019-04-07T08:11:05.576Z,28.90
2019-04-07T08:12:05.221Z,29.40
2019-04-07T08:13:26.226Z,29.10
2019-04-07T08:14:05.211Z,29.30
2019-04-07T08:15:07.994Z,29.00
2019-04-07T08:16:05.264Z,30.50
2019-04-07T08:17:05.473Z,29.30
2019-04-07T08:18:07.643Z,28.50
2019-04-07T08:19:29.415Z,29.60
2019-04-07T08:20:05.657Z,29.00
2019-04-07T08:21:05.535Z,28.60
2019-04-07T08:22:07.631Z,28.70
2019-04-07T08:23:05.413Z,28.50
2019-04-07T08:24:05.377Z,29.00
2019-04-07T08:25:26.412Z,28.60
2019-04-07T08:26:05.420Z,29.90
2019-04-07T08:27:06.299Z,29.90
2019-04-07T08:28:06.063Z,29.10
2019-04-07T08:29:06.731Z,28.00
2019-04-07T08:30:10.178Z,28.60
2019-04-07T08:31:26.512Z,29.50
2019-04-07T08:32:05.604Z,29.10
2019-04-07T08:33:05.537Z,28.90
2019-04-07T08:34:05.549Z,27.70
2019-04-07T08:35:05.831Z,27.90
2019-04-07T08:36:08.902Z,28.60
2019-04-07T08:37:26.589Z,29.00
2019-04-07T08:38:05.678Z,28.70
2019-04-07T08:39:06.133Z,27.30
2019-04-07T08:40:07.679Z,28.50
2019-04-07T08:41:08.745Z,28.00
2019-04-07T08:42:09.718Z,28.20
2019-04-07T08:43:27.456Z,27.70
2019-04-07T08:44:06.123Z,27.10
2019-04-07T08:45:06.306Z,27.80
2019-04-07T08:46:06.113Z,26.60
2019-04-07T08:47:06.452Z,26.80
2019-04-07T08:48:06.370Z,27.40
2019-04-07T08:49:27.530Z,27.20
2019-04-07T08:50:06.243Z,25.70
2019-04-07T08:51:05.875Z,26.70
2019-04-07T08:52:09.085Z,25.10
2019-04-07T08:53:05.877Z,25.60
2019-04-07T08:54:05.951Z,24.80
2019-04-07T08:55:28.177Z,22.20
2019-04-07T08:56:08.403Z,21.70
2019-04-07T08:57:05.899Z,21.80
2019-04-07T08:58:06.653Z,24.60
2019-04-07T08:59:08.444Z,22.70
2019-04-07T09:00:06.254Z,25.30
2019-04-07T09:01:29.634Z,24.70
2019-04-07T09:02:06.353Z,25.00
2019-04-07T09:03:11.388Z,26.10
2019-04-07T09:04:06.636Z,23.30
2019-04-07T09:05:06.590Z,23.30
2019-04-07T09:06:06.224Z,24.90
2019-04-07T09:07:27.648Z,25.10
2019-04-07T09:08:07.059Z,24.90
2019-04-07T09:09:07.837Z,24.60
2019-04-07T09:10:06.165Z,24.60
2019-04-07T09:11:06.145Z,24.10
2019-04-07T09:12:06.366Z,23.10
2019-04-07T09:13:27.684Z,22.50
2019-04-07T09:14:07.674Z,23.20
2019-04-07T09:15:09.500Z,22.90
2019-04-07T09:16:06.288Z,23.00
2019-04-07T09:17:06.223Z,24.00
2019-04-07T09:18:06.264Z,21.60
2019-04-07T09:19:27.293Z,20.90
2019-04-07T09:20:09.143Z,20.40
2019-04-07T09:21:06.317Z,20.20
2019-04-07T09:22:06.348Z,20.20
2019-04-07T09:23:06.992Z,20.50
2019-04-07T09:24:07.113Z,20.80
2019-04-07T09:25:28.254Z,19.40
2019-04-07T09:26:09.487Z,19.40
2019-04-07T09:27:06.433Z,19.40
2019-04-07T09:28:06.494Z,19.40
2019-04-07T09:29:06.525Z,19.30
2019-04-07T09:30:08.976Z,18.10
2019-04-07T09:31:28.140Z,18.70
2019-04-07T09:32:06.575Z,19.70
2019-04-07T09:33:07.092Z,19.10
2019-04-07T09:34:07.048Z,22.10
2019-04-07T09:35:07.247Z,22.40
2019-04-07T09:36:06.930Z,21.90
2019-04-07T09:37:28.216Z,22.20
2019-04-07T09:38:07.992Z,22.40
2019-04-07T09:39:06.777Z,22.00
2019-04-07T09:40:06.830Z,21.90
2019-04-07T09:41:07.235Z,21.30
2019-04-07T09:42:06.706Z,21.90
2019-04-07T09:43:30.259Z,21.60
2019-04-07T09:44:06.701Z,21.30
2019-04-07T09:45:08.987Z,20.30
2019-04-07T09:46:09.309Z,21.60
2019-04-07T09:47:06.742Z,21.30
2019-04-07T09:48:07.363Z,20.50
2019-04-07T09:49:27.799Z,18.60
2019-04-07T09:50:06.830Z,20.70
2019-04-07T09:51:07.458Z,19.80
2019-04-07T09:52:10.219Z,20.10
2019-04-07T09:53:06.885Z,20.20
2019-04-07T09:54:06.988Z,19.10
2019-04-07T09:55:27.935Z,18.70
2019-04-07T09:56:09.818Z,18.40
2019-04-07T09:57:07.390Z,18.60
2019-04-07T09:58:09.264Z,19.70
2019-04-07T09:59:07.827Z,18.40
2019-04-07T10:00:08.315Z,18.30
2019-04-07T10:01:29.042Z,17.90
2019-04-07T10:02:07.038Z,17.10
2019-04-07T10:03:11.518Z,16.00
2019-04-07T10:04:07.697Z,16.00
2019-04-07T10:05:07.082Z,14.70
2019-04-07T10:06:09.867Z,14.50
2019-04-07T10:07:28.377Z,15.90
2019-04-07T10:08:07.296Z,15.40
2019-04-07T10:09:07.210Z,15.30
2019-04-07T10:10:12.463Z,16.40
2019-04-07T10:11:07.210Z,16.70
2019-04-07T10:12:08.089Z,14.60
2019-04-07T10:13:29.651Z,14.20
2019-04-07T10:14:07.910Z,13.40
2019-04-07T10:15:07.592Z,13.20
2019-04-07T10:16:08.853Z,12.90
2019-04-07T10:17:07.558Z,12.70
2019-04-07T10:18:07.685Z,13.50
2019-04-07T10:19:28.349Z,15.10
2019-04-07T10:20:07.374Z,15.10
2019-04-07T10:21:07.434Z,14.70
2019-04-07T10:22:07.423Z,14.10
2019-04-07T10:23:07.980Z,14.20
2019-04-07T10:24:07.481Z,13.70
2019-04-07T10:25:29.274Z,13.40
2019-04-07T10:26:08.230Z,14.10
2019-04-07T10:27:08.096Z,12.70
2019-04-07T10:28:10.585Z,11.60
2019-04-07T10:29:07.549Z,11.00
2019-04-07T10:30:07.905Z,9.80
2019-04-07T10:31:29.274Z,7.90
2019-04-07T10:32:07.843Z,7.40
2019-04-07T10:33:07.777Z,6.70
2019-04-07T10:34:08.200Z,7.30
2019-04-07T10:35:08.067Z,7.00
2019-04-07T10:36:07.883Z,7.00
2019-04-07T10:37:28.833Z,8.00
2019-04-07T10:38:07.754Z,6.70
2019-04-07T10:39:08.383Z,6.10
2019-04-07T10:40:16.801Z,6.70
2019-04-07T10:41:07.788Z,6.70
2019-04-07T10:42:08.655Z,6.40
2019-04-07T10:43:28.894Z,6.70
2019-04-07T10:44:08.475Z,6.20
2019-04-07T10:45:09.005Z,6.10
2019-04-07T10:46:07.928Z,6.20
2019-04-07T10:47:07.942Z,6.00
2019-04-07T10:48:08.033Z,6.00
2019-04-07T10:49:29.565Z,6.10
2019-04-07T10:50:08.945Z,6.60
2019-04-07T10:51:08.016Z,6.70
2019-04-07T10:52:08.053Z,6.80
2019-04-07T10:53:08.233Z,6.50
2019-04-07T10:54:08.173Z,6.40
2019-04-07T10:55:29.151Z,5.80
2019-04-07T10:56:08.821Z,6.00
2019-04-07T10:57:08.168Z,6.10
2019-04-07T10:58:08.284Z,6.10
2019-04-07T10:59:08.230Z,5.80
2019-04-07T11:00:08.976Z,5.40
2019-04-07T11:01:29.265Z,5.70
2019-04-07T11:02:08.366Z,5.80
2019-04-07T11:03:08.399Z,5.50
2019-04-07T11:04:08.303Z,5.50
2019-04-07T11:05:08.510Z,6.30
2019-04-07T11:06:08.371Z,6.00
2019-04-07T11:07:29.385Z,6.90
2019-04-07T11:08:08.496Z,6.40
2019-04-07T11:09:08.827Z,5.80
2019-04-07T11:10:09.224Z,6.50
2019-04-07T11:11:08.458Z,6.00
2019-04-07T11:12:08.843Z,7.00
2019-04-07T11:13:29.923Z,5.80
2019-04-07T11:14:09.622Z,5.80
2019-04-07T11:15:09.265Z,6.20
2019-04-07T11:16:09.215Z,5.20
2019-04-07T11:17:08.605Z,5.20
2019-04-07T11:18:08.761Z,4.80
2019-04-07T11:19:29.675Z,5.20
2019-04-07T11:20:09.308Z,5.20
2019-04-07T11:21:09.535Z,4.50
2019-04-07T11:22:08.726Z,4.50
2019-04-07T11:23:09.712Z,5.00
2019-04-07T11:24:08.926Z,5.10
2019-04-07T11:25:29.823Z,4.40
2019-04-07T11:26:08.878Z,5.00
2019-04-07T11:27:09.270Z,4.90
2019-04-07T11:28:08.883Z,5.00
2019-04-07T11:29:09.512Z,4.60
2019-04-07T11:30:09.652Z,5.40
2019-04-07T11:31:30.036Z,4.90
2019-04-07T11:32:10.272Z,5.00
2019-04-07T11:33:09.489Z,4.60
2019-04-07T11:34:09.030Z,4.70
2019-04-07T11:35:09.420Z,4.20
2019-04-07T11:36:11.613Z,4.50
2019-04-07T11:37:30.861Z,4.80
2019-04-07T11:38:09.240Z,4.90
2019-04-07T11:39:10.034Z,5.10
2019-04-07T11:40:09.147Z,5.40
2019-04-07T11:41:09.189Z,5.40
2019-04-07T11:42:09.194Z,5.20
2019-04-07T11:43:30.469Z,5.10
2019-04-07T11:44:09.255Z,5.20
2019-04-07T11:45:09.350Z,4.90
2019-04-07T11:46:09.301Z,4.70
2019-04-07T11:47:09.843Z,4.80
2019-04-07T11:48:10.035Z,4.80
2019-04-07T11:49:31.222Z,4.70
2019-04-07T11:50:09.424Z,4.80
2019-04-07T11:51:09.591Z,7.10
2019-04-07T11:52:09.587Z,5.20
2019-04-07T11:53:09.493Z,4.60
2019-04-07T11:54:09.702Z,4.70
2019-04-07T11:55:31.275Z,5.00
2019-04-07T11:56:11.099Z,4.90
2019-04-07T11:57:09.831Z,4.40
2019-04-07T11:58:14.855Z,4.40
2019-04-07T11:59:10.172Z,4.20
2019-04-07T12:00:09.672Z,5.50
2019-04-07T12:01:30.721Z,4.30
2019-04-07T12:02:10.433Z,5.00
2019-04-07T12:03:10.556Z,4.30
2019-04-07T12:04:09.822Z,4.40
2019-04-07T12:05:09.878Z,4.80
2019-04-07T12:06:11.595Z,4.80
2019-04-07T12:07:30.843Z,4.70
2019-04-07T12:08:10.449Z,4.90
2019-04-07T12:09:09.857Z,4.60
2019-04-07T12:10:09.887Z,4.40
2019-04-07T12:11:13.160Z,4.40
2019-04-07T12:12:10.023Z,4.70
2019-04-07T12:13:31.388Z,4.40
2019-04-07T12:14:10.673Z,4.80
2019-04-07T12:15:10.007Z,4.20
2019-04-07T12:16:10.323Z,4.90
2019-04-07T12:17:12.426Z,4.80
2019-04-07T12:18:15.020Z,5.00
2019-04-07T12:19:31.122Z,4.90
2019-04-07T12:20:10.847Z,4.40
2019-04-07T12:21:20.057Z,4.70
2019-04-07T12:22:12.864Z,5.00
2019-04-07T12:23:10.398Z,5.10
2019-04-07T12:24:10.668Z,4.50
2019-04-07T12:25:33.459Z,4.50
2019-04-07T12:26:10.256Z,4.70
2019-04-07T12:27:11.629Z,4.50
2019-04-07T12:28:14.700Z,4.80
2019-04-07T12:29:10.768Z,4.30
2019-04-07T12:30:10.356Z,4.50
2019-04-07T12:31:31.418Z,4.40
2019-04-07T12:32:10.427Z,4.30
2019-04-07T12:33:11.453Z,4.40
2019-04-07T12:34:13.869Z,4.30
2019-04-07T12:35:10.797Z,4.10
2019-04-07T12:36:10.540Z,4.30
2019-04-07T12:37:31.797Z,4.30
2019-04-07T12:38:12.306Z,4.20
2019-04-07T12:39:10.578Z,4.20
2019-04-07T12:40:10.932Z,4.10
2019-04-07T12:41:17.312Z,4.00
2019-04-07T12:42:11.313Z,4.00
2019-04-07T12:43:31.726Z,4.10
2019-04-07T12:44:11.478Z,4.10
2019-04-07T12:45:11.212Z,4.10
2019-04-07T12:46:11.164Z,4.30
2019-04-07T12:47:11.349Z,4.50
2019-04-07T12:48:11.334Z,3.90
2019-04-07T12:49:33.358Z,4.10
2019-04-07T12:50:14.724Z,4.70
2019-04-07T12:51:12.223Z,4.20
2019-04-07T12:52:11.644Z,4.70
2019-04-07T12:53:10.900Z,4.40
2019-04-07T12:54:11.797Z,4.50
2019-04-07T12:55:32.591Z,4.00
2019-04-07T12:56:11.398Z,4.30
2019-04-07T12:57:11.010Z,3.80
2019-04-07T12:58:11.709Z,4.50